Latest Weather Observations for Maroochydore

IDQ60801

Issued at 11:35 am EST Tuesday 2 September 2014 (issued every 30 minutes, with the page automatically refreshed every 10 minutes)

About weather observations | Map of weather stations | Latest weather observations for QLD | Other Formats
Station Details ID: 040861 Name: SUNSHINE COAST AIRPORT Lat: -26.60 Lon: 153.09 Height: 3.3 m
Data from the previous 72 hours. | See also: Recent months at Maroochydore
Date/Time
EST
Temp
°C
App
Temp
°C
Dew
Point
Rel
Hum
%
Delta-T
°C
Wind Press
QNH
hPa
Press
MSL
hPa
Rain
since 9 am
mm
Dir
 
Spd
km/h
Gust
km/h
Spd
kts
Gust
kts
02/11:30am 23.6 19.5 11.6 47 6.8 NW 24 35 13 19 1011.8 - 0.0
02/11:00am 23.8 19.9 12.1 48 6.6 NNW 24 32 13 17 1012.4 - 0.0
02/10:30am 22.7 19.3 12.6 53 5.8 NNW 22 30 12 16 1013.0 - 0.0
02/10:00am 21.6 18.6 13.8 61 4.5 NW 22 33 12 18 1013.6 - 0.0
02/09:30am 21.3 16.8 13.7 62 4.4 NW 30 43 16 23 1014.2 - 0.0
02/09:00am 20.8 17.4 14.7 68 3.6 NW 26 39 14 21 1014.6 1014.6 0.2
02/08:36am 20.3 16.4 14.4 69 3.4 NW 28 46 15 25 1014.7 - 0.2
02/08:30am 20.3 17.8 15.1 72 3.1 NW 22 37 12 20 1014.7 - 0.2
02/08:00am 18.8 17.4 15.5 81 1.9 NNW 17 30 9 16 1015.1 - 0.2
02/07:30am 17.7 16.6 15.3 86 1.4 NNW 15 20 8 11 1015.3 - 0.2
02/07:00am 16.9 15.3 15.1 89 1.0 NNW 17 24 9 13 1014.8 - 0.2
02/06:30am 16.5 15.2 14.9 90 0.9 NNW 15 20 8 11 1014.9 - 0.2
02/06:00am 16.3 14.6 14.7 90 0.9 NW 17 26 9 14 1014.9 1014.9 0.0
02/05:30am 16.2 13.9 14.7 91 0.9 NW 20 30 11 16 1014.6 - 0.0
02/05:00am 16.0 14.3 14.7 92 0.7 NW 17 24 9 13 1014.6 - 0.0
02/04:30am 16.0 13.6 14.5 91 0.9 NW 20 28 11 15 1014.7 - 0.0
02/04:00am 15.9 13.5 14.4 91 0.9 NW 20 30 11 16 1014.8 - 0.0
02/03:30am 15.8 13.9 14.3 91 0.9 NNW 17 24 9 13 1014.6 - 0.0
02/03:00am 15.5 13.9 14.0 91 0.8 NW 15 20 8 11 1014.9 1014.9 0.0
02/02:30am 15.2 13.5 13.7 91 0.8 NW 15 20 8 11 1015.1 - 0.0
02/02:00am 14.1 12.7 12.3 89 1.0 NW 11 15 6 8 1015.3 - 0.0
02/01:30am 14.3 12.8 12.0 86 1.2 NW 11 15 6 8 1015.9 - 0.0
02/01:00am 14.1 12.3 12.0 87 1.1 NW 13 15 7 8 1016.0 - 0.0
02/12:30am 13.4 12.6 11.6 89 1.0 NW 7 11 4 6 1016.4 - 0.0
02/12:00am 13.7 12.6 11.9 89 1.0 NNW 9 13 5 7 1016.6 1016.6 0.0
 
Date/Time
EST
Temp
°C
App
Temp
°C
Dew
Point
Rel
Hum
%
Delta-T
°C
Wind Press
QNH
hPa
Press
MSL
hPa
Rain
since 9 am
mm
Dir
 
Spd
km/h
Gust
km/h
Spd
kts
Gust
kts
01/11:30pm 14.0 12.9 11.9 87 1.1 NNW 9 11 5 6 1016.9 - 0.0
01/11:00pm 15.2 13.1 12.5 84 1.5 NNW 15 17 8 9 1016.7 - 0.0
01/10:30pm 14.9 13.1 12.2 84 1.5 N 13 17 7 9 1016.8 - 0.0
01/10:00pm 15.4 14.3 13.1 86 1.3 NNW 11 15 6 8 1017.0 - 0.0
01/09:30pm 15.5 15.0 13.7 89 1.0 NNW 9 13 5 7 1017.0 - 0.0
01/09:00pm 16.4 15.5 14.8 90 0.9 NW 13 17 7 9 1017.1 1017.1 0.0
01/08:30pm 16.6 15.7 14.8 89 1.0 NW 13 17 7 9 1017.0 - 0.0
01/08:00pm 17.4 16.5 14.9 85 1.4 NNW 13 19 7 10 1016.9 - 0.0
01/07:30pm 18.4 17.0 15.5 83 1.7 NNW 17 22 9 12 1017.0 - 0.0
01/07:00pm 18.9 16.6 15.8 82 1.8 N 22 32 12 17 1016.4 - 0.0
01/06:30pm 19.1 16.5 16.0 82 1.8 N 24 33 13 18 1016.2 - 0.0
01/06:00pm 19.7 16.4 16.0 79 2.2 N 28 41 15 22 1015.8 1015.8 0.0
01/05:30pm 19.7 16.2 15.6 77 2.4 N 28 37 15 20 1015.7 - 0.0
01/05:00pm 20.3 16.6 15.9 76 2.6 N 30 37 16 20 1015.5 - 0.0
01/04:30pm 20.8 17.5 16.0 74 2.9 N 28 37 15 20 1015.2 - 0.0
01/04:00pm 21.6 18.2 15.7 69 3.5 N 28 37 15 20 1015.1 - 0.0
01/03:30pm 21.9 17.8 16.0 69 3.6 NNE 32 39 17 21 1015.0 - 0.0
01/03:00pm 22.3 18.8 15.4 65 4.1 NNE 28 37 15 20 1015.3 1015.3 0.0
01/02:30pm 22.9 19.3 16.2 66 4.1 NNE 30 39 16 21 1015.5 - 0.0
01/02:00pm 23.1 19.6 16.4 66 4.1 NNE 30 35 16 19 1015.9 - 0.0
01/01:30pm 23.0 19.6 16.8 68 3.8 NNE 30 35 16 19 1016.4 - 0.0
01/01:00pm 23.2 20.4 16.3 65 4.2 NNE 26 32 14 17 1016.7 - 0.0
01/12:30pm 22.0 18.5 14.6 63 4.4 NE 26 30 14 16 1017.1 - 0.0
01/12:00pm 24.2 22.4 15.9 59 5.0 NE 20 26 11 14 1017.4 1017.4 0.0
01/11:30am 23.8 21.6 15.0 57 5.3 NE 20 26 11 14 1017.8 - 0.0
01/11:00am 24.2 22.2 11.5 45 7.2 NW 13 24 7 13 1018.7 - 0.0
01/10:30am 24.0 21.6 12.6 49 6.5 NW 17 24 9 13 1019.3 - 0.0
01/10:00am 24.1 22.9 13.9 53 6.0 NW 13 19 7 10 1019.6 - 0.0
01/09:30am 22.5 20.3 13.3 56 5.3 NNW 17 24 9 13 1019.8 - 0.0
01/09:00am 21.3 20.3 14.5 65 4.0 NW 13 20 7 11 1019.9 1019.9 0.0
01/08:30am 19.6 19.4 15.7 78 2.3 WNW 11 15 6 8 1019.7 - 0.0
01/08:00am 17.3 17.3 15.3 88 1.2 WNW 9 11 5 6 1019.7 - 0.0
01/07:30am 15.7 15.5 14.7 94 0.6 WNW 9 11 5 6 1019.4 - 0.0
01/07:00am 14.2 14.6 13.6 96 0.3 NW 4 7 2 4 1019.1 - 0.0
01/06:30am 12.3 11.4 11.5 95 0.4 WNW 7 9 4 5 1019.0 - 0.0
01/06:00am 12.1 10.8 11.3 95 0.4 WNW 9 13 5 7 1018.8 1018.8 0.0
01/05:30am 12.5 11.3 11.7 95 0.4 W 9 11 5 6 1018.6 - 0.0
01/05:00am 13.0 11.6 12.2 95 0.4 WNW 11 13 6 7 1018.2 - 0.0
01/04:30am 13.5 12.3 12.9 96 0.3 WNW 11 13 6 7 1018.1 - 0.0
01/04:00am 13.3 12.0 12.5 95 0.4 W 11 13 6 7 1018.0 - 0.0
01/03:30am 13.5 11.9 12.9 96 0.3 WNW 13 13 7 7 1018.0 - 0.0
01/03:10am 12.9 11.8 12.1 95 0.4 W 9 11 5 6 1018.1 - 0.0
01/03:00am 12.6 11.5 11.8 95 0.4 W 9 11 5 6 1018.1 1018.1 0.0
01/02:46am 12.3 11.0 11.4 94 0.5 W 9 9 5 5 1018.0 - 0.0
01/02:30am 12.6 11.8 11.7 94 0.5 W 7 9 4 5 1018.0 - 0.0
01/02:00am 12.8 11.7 11.9 94 0.5 WNW 9 11 5 6 1018.3 - 0.0
01/01:30am 12.7 11.5 11.6 93 0.6 W 9 11 5 6 1018.3 - 0.0
01/01:00am 12.9 12.1 11.8 93 0.6 W 7 9 4 5 1018.5 - 0.0
01/12:30am 14.0 13.8 12.9 93 0.6 W 6 6 3 3 1018.4 - 0.0
01/12:00am 13.8 13.3 12.5 92 0.7 W 7 9 4 5 1018.7 1018.7 0.0
 
Date/Time
EST
Temp
°C
App
Temp
°C
Dew
Point
Rel
Hum
%
Delta-T
°C
Wind Press
QNH
hPa
Press
MSL
hPa
Rain
since 9 am
mm
Dir
 
Spd
km/h
Gust
km/h
Spd
kts
Gust
kts
31/11:30pm 14.1 13.6 12.7 91 0.8 WNW 7 11 4 6 1018.7 - 0.0
31/11:00pm 14.7 14.4 13.4 92 0.7 WNW 7 9 4 5 1018.9 - 0.0
31/10:30pm 14.8 14.6 13.5 92 0.7 W 7 9 4 5 1019.0 - 0.0
31/10:00pm 14.6 14.3 13.3 92 0.7 W 7 11 4 6 1018.9 - 0.0
31/09:30pm 14.7 14.1 13.4 92 0.7 WNW 9 11 5 6 1018.9 - 0.0
31/09:00pm 14.8 14.8 13.5 92 0.7 W 6 7 3 4 1018.8 1018.8 0.0
31/08:30pm 14.5 14.1 13.0 91 0.8 W 7 9 4 5 1018.7 - 0.0
31/08:00pm 15.0 14.7 13.4 90 0.9 WSW 7 9 4 5 1018.4 - 0.0
31/07:30pm 14.9 15.3 12.6 86 1.3 ENE 2 7 1 4 1018.3 - 0.0
31/07:00pm 17.5 16.8 13.2 76 2.4 ENE 9 11 5 6 1017.9 - 0.0
31/06:30pm 18.3 17.4 13.8 75 2.6 ENE 11 13 6 7 1017.5 - 0.0
31/06:00pm 18.0 17.0 13.5 75 2.5 ENE 11 15 6 8 1017.2 1017.2 0.0
31/05:30pm 18.5 17.2 13.8 74 2.7 NE 13 15 7 8 1016.9 - 0.0
31/05:00pm 19.6 18.4 14.0 70 3.2 ENE 13 17 7 9 1016.8 - 0.0
31/04:30pm 20.4 18.9 14.1 67 3.6 ENE 15 19 8 10 1016.5 - 0.0
31/04:00pm 21.0 19.1 14.2 65 4.0 ENE 17 20 9 11 1016.3 - 0.0
31/03:30pm 21.1 19.1 13.8 63 4.2 ENE 17 22 9 12 1016.1 - 0.0
31/03:00pm 21.7 20.0 14.6 64 4.2 ENE 17 22 9 12 1016.2 1016.2 0.0
31/02:30pm 21.9 20.1 14.5 63 4.3 ENE 17 22 9 12 1016.1 - 0.0
31/02:00pm 22.4 20.8 15.0 63 4.4 ENE 17 20 9 11 1016.1 - 0.0
31/01:30pm 21.8 19.9 14.2 62 4.4 E 17 20 9 11 1016.3 - 0.0
31/01:00pm 21.4 19.5 14.3 64 4.1 E 17 22 9 12 1016.7 - 0.0
31/12:30pm 21.0 18.9 14.6 67 3.7 E 19 22 10 12 1017.1 - 0.0
31/12:00pm 20.8 18.5 14.2 66 3.8 E 19 22 10 12 1017.5 1017.5 0.0
31/11:30am 21.3 19.3 14.0 63 4.2 ESE 17 20 9 11 1017.9 - 0.0
31/11:00am 20.8 18.6 13.3 62 4.3 ESE 17 20 9 11 1018.3 - 0.0
31/10:30am 20.9 18.6 11.8 56 5.1 E 15 17 8 9 1018.6 - 0.0
31/10:00am 21.5 20.4 13.2 59 4.8 ESE 11 15 6 8 1019.0 - 0.0
31/09:30am 20.8 20.0 13.0 61 4.4 E 9 13 5 7 1019.1 - 0.0
31/09:00am 20.1 20.2 11.6 58 4.7 SW 2 9 1 5 1019.2 1019.2 0.0
31/08:30am 18.8 18.8 13.6 72 3.0 WSW 6 7 3 4 1019.3 - 0.0
31/08:00am 16.7 16.5 13.6 82 1.7 W 7 9 4 5 1019.2 - 0.0
31/07:30am 14.7 14.4 13.2 91 0.8 W 7 9 4 5 1019.0 - 0.0
31/07:00am 12.5 11.7 11.7 95 0.4 WNW 7 9 4 5 1018.8 - 0.0
31/06:30am 10.7 9.4 9.9 95 0.4 W 7 9 4 5 1018.6 - 0.0
31/06:00am 10.9 9.6 10.0 94 0.5 WSW 7 9 4 5 1018.4 1018.4 0.0
31/05:30am 11.1 9.9 10.2 94 0.5 W 7 9 4 5 1018.1 - 0.0
31/05:00am 11.4 10.3 10.5 94 0.5 W 7 9 4 5 1017.8 - 0.0
31/04:30am 11.6 10.1 10.7 94 0.5 W 9 9 5 5 1017.7 - 0.0
31/04:00am 11.2 9.6 10.1 93 0.6 W 9 11 5 6 1017.7 - 0.0
31/03:30am 11.8 10.3 10.7 93 0.6 W 9 11 5 6 1017.7 - 0.0
31/03:00am 12.3 11.0 11.2 93 0.6 W 9 11 5 6 1017.7 1017.7 0.0
31/02:30am 12.5 11.2 11.4 93 0.6 W 9 9 5 5 1017.9 - 0.0
31/02:00am 12.5 11.2 11.2 92 0.7 W 9 9 5 5 1018.0 - 0.0
31/01:30am 12.8 11.6 11.5 92 0.7 W 9 11 5 6 1018.1 - 0.0
31/01:00am 12.8 11.6 11.7 93 0.6 W 9 13 5 7 1018.3 - 0.0
31/12:30am 12.5 10.9 11.6 94 0.5 WNW 11 15 6 8 1018.5 - 0.0
31/12:00am 11.7 11.9 10.6 93 0.6 CALM 0 0 0 0 1018.6 1018.6 0.0
 
Date/Time
EST
Temp
°C
App
Temp
°C
Dew
Point
Rel
Hum
%
Delta-T
°C
Wind Press
QNH
hPa
Press
MSL
hPa
Rain
since 9 am
mm
Dir
 
Spd
km/h
Gust
km/h
Spd
kts
Gust
kts
30/11:30pm 11.6 11.8 10.5 93 0.6 CALM 0 0 0 0 1018.8 - 0.0
30/11:00pm 11.8 12.0 10.7 93 0.6 CALM 0 0 0 0 1018.8 - 0.0
30/10:30pm 11.6 11.7 10.3 92 0.7 CALM 0 0 0 0 1018.8 - 0.0
30/10:00pm 11.6 11.7 10.2 91 0.7 CALM 0 0 0 0 1018.7 - 0.0
30/09:30pm 11.9 12.0 10.3 90 0.8 CALM 0 0 0 0 1018.7 - 0.0
30/09:00pm 12.4 12.7 10.8 90 0.8 CALM 0 0 0 0 1018.6 1018.6 0.0
30/08:30pm 12.8 13.0 10.5 86 1.2 CALM 0 0 0 0 1018.6 - 0.0
30/08:00pm 13.2 13.4 10.6 84 1.4 CALM 0 0 0 0 1018.4 - 0.0
30/07:30pm 14.1 14.5 11.1 82 1.6 CALM 0 0 0 0 1018.3 - 0.0
30/07:00pm 17.6 16.5 12.1 70 3.0 E 9 11 5 6 1018.0 - 0.0
30/06:30pm 18.0 17.0 12.2 69 3.2 E 9 15 5 8 1017.9 - 0.0
30/06:00pm 17.9 16.8 12.1 69 3.2 E 9 15 5 8 1017.7 1017.7 0.0
30/05:30pm 18.5 17.0 12.0 66 3.6 E 11 15 6 8 1017.4 - 0.0
30/05:00pm 19.1 17.1 11.4 61 4.2 E 13 20 7 11 1017.2 - 0.0
30/04:30pm 19.9 17.2 11.7 59 4.5 E 17 22 9 12 1016.9 - 0.0
30/04:00pm 20.2 16.8 10.6 54 5.2 E 19 24 10 13 1016.7 - 0.0
30/03:30pm 20.9 17.4 11.0 53 5.4 ESE 20 26 11 14 1016.5 - 0.0
30/03:00pm 20.9 16.8 10.1 50 5.8 ESE 22 28 12 15 1016.5 1016.5 0.0
30/02:30pm 21.3 17.0 9.5 47 6.3 ESE 22 30 12 16 1016.5 - 0.0
30/02:00pm 21.3 17.5 9.9 48 6.1 ESE 20 26 11 14 1016.7 - 0.0
30/01:30pm 21.3 17.3 9.2 46 6.4 ESE 20 26 11 14 1016.9 - 0.0
30/01:00pm 21.0 18.4 11.9 56 5.1 E 17 20 9 11 1016.9 - 0.0
30/12:30pm 20.5 17.4 12.2 59 4.6 E 20 24 11 13 1017.4 - 0.0
30/12:00pm 20.7 18.0 11.6 56 5.0 E 17 20 9 11 1018.0 1018.0 0.0

Other Formats:

Comma delimited format used in spreadsheet applications
http://www.bom.gov.au/fwo/IDQ60801/IDQ60801.94569.axf

JavaScript Object Notation format (JSON) in row-major order
http://www.bom.gov.au/fwo/IDQ60801/IDQ60801.94569.json